createdAt,value
2018-07-05T00:00:30.074Z,23.50
2018-07-05T00:03:09.785Z,23.50
2018-07-05T00:05:49.414Z,23.40
2018-07-05T00:08:29.326Z,23.40
2018-07-05T00:11:08.979Z,23.40
2018-07-05T00:13:48.601Z,23.30
2018-07-05T00:16:28.330Z,23.40
2018-07-05T00:19:08.016Z,23.30
2018-07-05T00:21:47.707Z,23.30
2018-07-05T00:24:27.277Z,23.30
2018-07-05T00:27:07.795Z,23.30
2018-07-05T00:29:47.516Z,23.40
2018-07-05T00:32:27.213Z,23.30
2018-07-05T00:35:06.748Z,23.20
2018-07-05T00:37:46.459Z,23.20
2018-07-05T00:40:26.179Z,23.20
2018-07-05T00:43:05.854Z,23.10
2018-07-05T00:45:45.467Z,23.10
2018-07-05T00:48:25.267Z,23.10
2018-07-05T00:51:04.923Z,23.10
2018-07-05T00:53:44.535Z,23.10
2018-07-05T00:58:57.830Z,23.00
2018-07-05T01:01:37.480Z,23.10
2018-07-05T01:04:17.158Z,23.00
2018-07-05T01:06:56.924Z,23.00
2018-07-05T01:09:36.720Z,23.00
2018-07-05T01:12:16.428Z,22.90
2018-07-05T01:14:56.200Z,22.90
2018-07-05T01:17:35.641Z,22.90
2018-07-05T01:20:15.385Z,22.80
2018-07-05T01:22:54.920Z,22.80
2018-07-05T01:25:34.472Z,22.80
2018-07-05T01:28:14.076Z,22.80
2018-07-05T01:30:53.653Z,22.70
2018-07-05T01:33:33.440Z,22.70
2018-07-05T01:36:13.110Z,22.70
2018-07-05T01:38:52.755Z,22.60
2018-07-05T01:41:32.430Z,22.60
2018-07-05T01:44:12.080Z,22.60
2018-07-05T01:46:51.682Z,22.60
2018-07-05T01:49:31.434Z,22.50
2018-07-05T01:52:12.445Z,22.50
2018-07-05T01:54:53.219Z,22.40
2018-07-05T01:57:33.365Z,22.40
2018-07-05T02:00:13.289Z,22.40
2018-07-05T02:02:53.784Z,22.40
2018-07-05T02:05:34.079Z,22.30
2018-07-05T02:08:13.723Z,22.30
2018-07-05T02:10:53.229Z,22.30
2018-07-05T02:18:40.030Z,22.20
2018-07-05T02:21:19.708Z,22.20
2018-07-05T02:26:32.951Z,22.10
2018-07-05T02:31:46.304Z,22.10
2018-07-05T02:34:25.813Z,22.10
2018-07-05T02:37:08.224Z,22.00
2018-07-05T02:39:49.002Z,22.00
2018-07-05T02:45:02.156Z,22.00
2018-07-05T02:47:41.908Z,21.90
2018-07-05T02:50:21.590Z,21.90
2018-07-05T02:53:01.159Z,21.90
2018-07-05T02:55:40.880Z,21.90
2018-07-05T02:58:20.686Z,21.90
2018-07-05T03:01:00.202Z,21.80
2018-07-05T03:03:39.879Z,21.80
2018-07-05T03:06:19.632Z,21.80
2018-07-05T03:08:59.316Z,21.80
2018-07-05T03:11:39.108Z,21.80
2018-07-05T03:14:18.691Z,21.70
2018-07-05T03:16:58.418Z,21.70
2018-07-05T03:19:38.056Z,21.70
2018-07-05T03:22:17.602Z,21.70
2018-07-05T03:24:57.233Z,21.70
2018-07-05T03:27:36.933Z,21.70
2018-07-05T03:30:16.576Z,21.60
2018-07-05T03:35:29.708Z,21.50
2018-07-05T03:38:09.399Z,21.50
2018-07-05T03:40:49.082Z,21.50
2018-07-05T03:43:28.704Z,21.50
2018-07-05T03:46:08.262Z,21.50
2018-07-05T03:48:48.043Z,21.50
2018-07-05T03:51:27.754Z,21.50
2018-07-05T03:54:07.476Z,21.40
2018-07-05T03:56:47.307Z,21.40
2018-07-05T03:59:27.026Z,21.50
2018-07-05T04:02:06.710Z,21.50
2018-07-05T04:04:46.345Z,21.50
2018-07-05T04:07:26.008Z,21.50
2018-07-05T04:10:05.800Z,21.50
2018-07-05T04:12:45.396Z,21.50
2018-07-05T04:15:25.189Z,21.50
2018-07-05T04:18:05.009Z,21.50
2018-07-05T04:23:18.191Z,21.50
2018-07-05T04:25:57.892Z,21.50
2018-07-05T04:31:11.209Z,21.50
2018-07-05T04:33:50.923Z,21.50
2018-07-05T04:36:30.651Z,21.50
2018-07-05T04:39:10.298Z,21.50
2018-07-05T04:41:49.928Z,21.50
2018-07-05T04:44:29.442Z,21.50
2018-07-05T04:47:09.701Z,21.60
2018-07-05T04:52:22.780Z,21.60
2018-07-05T04:55:02.384Z,21.60
2018-07-05T04:57:41.840Z,21.70
2018-07-05T05:00:21.388Z,21.70
2018-07-05T05:03:00.854Z,21.70
2018-07-05T05:05:40.485Z,21.70
2018-07-05T05:08:20.221Z,21.70
2018-07-05T05:10:59.826Z,21.80
2018-07-05T05:16:12.966Z,21.90
2018-07-05T05:24:00.908Z,22.00
2018-07-05T05:26:40.514Z,22.10
2018-07-05T05:29:20.160Z,22.20
2018-07-05T05:31:59.836Z,22.20
2018-07-05T05:34:39.414Z,22.20
2018-07-05T05:39:52.806Z,22.40
2018-07-05T05:42:32.638Z,22.40
2018-07-05T05:45:12.266Z,22.50
2018-07-05T05:47:51.929Z,22.60
2018-07-05T05:50:31.555Z,22.60
2018-07-05T05:53:11.239Z,22.70
2018-07-05T05:55:50.737Z,22.70
2018-07-05T05:58:30.303Z,22.80
2018-07-05T06:01:09.969Z,22.90
2018-07-05T06:03:49.670Z,22.90
2018-07-05T06:06:29.243Z,23.00
2018-07-05T06:09:08.782Z,23.10
2018-07-05T06:11:48.379Z,23.20
2018-07-05T06:14:28.072Z,23.20
2018-07-05T06:17:08.399Z,23.30
2018-07-05T06:19:48.205Z,23.40
2018-07-05T06:22:27.749Z,23.40
2018-07-05T06:25:07.283Z,23.50
2018-07-05T06:27:47.121Z,23.60
2018-07-05T06:30:26.777Z,23.70
2018-07-05T06:33:06.344Z,23.70
2018-07-05T06:35:46.139Z,23.80
2018-07-05T06:40:59.517Z,24.00
2018-07-05T06:43:39.085Z,24.10
2018-07-05T06:46:18.537Z,24.20
2018-07-05T06:48:58.111Z,24.30
2018-07-05T06:51:38.233Z,24.30
2018-07-05T06:54:17.797Z,24.40
2018-07-05T06:59:31.186Z,24.60
2018-07-05T07:02:10.805Z,24.70
2018-07-05T07:04:50.411Z,24.80
2018-07-05T07:07:29.993Z,24.90
2018-07-05T07:10:09.703Z,24.90
2018-07-05T07:12:50.271Z,25.00
2018-07-05T07:15:29.782Z,25.10
2018-07-05T07:18:09.468Z,25.10
2018-07-05T07:20:49.187Z,25.20
2018-07-05T07:23:28.935Z,25.30
2018-07-05T07:26:08.459Z,25.30
2018-07-05T07:28:48.015Z,25.40
2018-07-05T07:31:27.610Z,25.40
2018-07-05T07:34:07.160Z,25.50
2018-07-05T07:36:46.882Z,25.50
2018-07-05T07:39:26.726Z,25.60
2018-07-05T07:41:54.068Z,25.60
2018-07-05T07:44:21.387Z,25.60
2018-07-05T07:46:49.159Z,25.70
2018-07-05T07:51:44.047Z,25.80
2018-07-05T07:54:11.461Z,25.80
2018-07-05T07:56:38.770Z,25.90
2018-07-05T07:59:06.080Z,25.90
2018-07-05T08:01:33.416Z,26.00
2018-07-05T08:04:00.706Z,26.10
2018-07-05T08:06:28.077Z,26.10
2018-07-05T08:08:55.435Z,26.10
2018-07-05T08:11:22.769Z,26.20
2018-07-05T08:13:50.132Z,26.20
2018-07-05T08:16:17.403Z,26.30
2018-07-05T08:18:44.704Z,26.30
2018-07-05T08:21:12.010Z,26.30
2018-07-05T08:26:06.921Z,26.40
2018-07-05T08:28:34.211Z,26.40
2018-07-05T08:31:01.492Z,26.40
2018-07-05T08:33:28.812Z,26.40
2018-07-05T08:35:56.121Z,26.50
2018-07-05T08:38:23.420Z,26.50
2018-07-05T08:40:50.704Z,26.40
2018-07-05T08:43:17.996Z,26.60
2018-07-05T08:45:45.262Z,26.70
2018-07-05T08:48:12.568Z,26.70
2018-07-05T08:50:39.848Z,26.80
2018-07-05T08:53:07.146Z,26.90
2018-07-05T08:55:34.472Z,27.00
2018-07-05T08:58:01.750Z,27.10
2018-07-05T09:00:29.060Z,27.20
2018-07-05T09:02:56.381Z,27.40
2018-07-05T09:05:23.688Z,27.60
2018-07-05T09:07:51.047Z,27.80
2018-07-05T09:10:18.318Z,28.00
2018-07-05T09:12:45.627Z,28.20
2018-07-05T09:15:12.966Z,28.40
2018-07-05T09:18:16.090Z,28.50
2018-07-05T09:20:43.308Z,28.70
2018-07-05T09:23:10.742Z,28.80
2018-07-05T09:25:37.943Z,29.00
2018-07-05T09:28:05.279Z,29.10
2018-07-05T09:30:32.591Z,29.20
2018-07-05T09:32:59.904Z,29.30
2018-07-05T09:35:27.265Z,29.50
2018-07-05T09:37:54.646Z,29.60
2018-07-05T09:40:21.959Z,29.60
2018-07-05T09:42:49.276Z,29.70
2018-07-05T09:45:16.732Z,29.70
2018-07-05T09:47:44.774Z,29.80
2018-07-05T09:50:12.213Z,29.80
2018-07-05T09:52:39.757Z,29.90
2018-07-05T09:55:08.159Z,30.00
2018-07-05T09:57:36.783Z,30.10
2018-07-05T10:00:04.140Z,30.20
2018-07-05T10:02:31.555Z,30.30
2018-07-05T10:04:58.923Z,30.50
2018-07-05T10:07:27.341Z,30.60
2018-07-05T10:09:54.711Z,30.70
2018-07-05T10:12:22.081Z,30.90
2018-07-05T10:14:50.655Z,31.10
2018-07-05T10:17:18.050Z,31.20
2018-07-05T10:19:45.458Z,31.40
2018-07-05T10:22:13.008Z,31.60
2018-07-05T10:24:42.834Z,31.80
2018-07-05T10:27:10.352Z,32.10
2018-07-05T10:29:50.094Z,32.30
2018-07-05T10:32:29.781Z,32.50
2018-07-05T10:34:57.089Z,32.70
2018-07-05T10:37:25.310Z,32.70
2018-07-05T10:40:06.053Z,32.80
2018-07-05T10:45:20.029Z,32.90
2018-07-05T10:47:59.842Z,32.90
2018-07-05T10:50:39.532Z,32.80
2018-07-05T10:53:19.077Z,32.80
2018-07-05T10:55:58.831Z,32.80
2018-07-05T10:58:38.538Z,32.80
2018-07-05T11:01:18.087Z,32.80
2018-07-05T11:03:57.780Z,32.70
2018-07-05T11:06:37.300Z,32.70
2018-07-05T11:09:16.934Z,32.70
2018-07-05T11:11:56.659Z,32.60
2018-07-05T11:14:36.462Z,32.50
2018-07-05T11:17:16.090Z,32.50
2018-07-05T11:19:55.910Z,32.50
2018-07-05T11:22:35.558Z,32.40
2018-07-05T11:25:15.248Z,32.40
2018-07-05T11:30:28.390Z,32.30
2018-07-05T11:33:08.019Z,32.20
2018-07-05T11:38:21.374Z,32.10
2018-07-05T11:41:01.048Z,32.10
2018-07-05T11:43:40.721Z,32.00
2018-07-05T11:46:20.378Z,31.90
2018-07-05T11:51:34.170Z,31.70
2018-07-05T11:54:13.820Z,31.70
2018-07-05T11:56:53.654Z,31.60
2018-07-05T11:59:33.245Z,31.50
2018-07-05T12:02:12.746Z,31.40
2018-07-05T12:04:52.563Z,31.40
2018-07-05T12:10:05.870Z,31.30
2018-07-05T12:12:45.439Z,31.30
2018-07-05T12:15:25.121Z,31.20
2018-07-05T12:18:05.159Z,31.20
2018-07-05T12:20:44.603Z,31.10
2018-07-05T12:23:24.210Z,31.10
2018-07-05T12:26:03.881Z,31.10
2018-07-05T12:28:43.363Z,31.10
2018-07-05T12:31:22.892Z,31.00
2018-07-05T12:34:02.573Z,31.00
2018-07-05T12:36:42.207Z,31.00
2018-07-05T12:39:21.766Z,30.90
2018-07-05T12:42:01.308Z,30.90
2018-07-05T12:47:14.929Z,30.80
2018-07-05T12:49:54.727Z,30.70
2018-07-05T12:52:34.485Z,30.70
2018-07-05T12:55:14.126Z,30.60
2018-07-05T12:57:53.714Z,30.50
2018-07-05T13:00:33.368Z,30.50
2018-07-05T13:05:46.528Z,30.30
2018-07-05T13:08:26.015Z,30.20
2018-07-05T13:11:05.595Z,30.20
2018-07-05T13:13:45.264Z,30.10
2018-07-05T13:16:25.031Z,30.00
2018-07-05T13:19:04.713Z,29.90
2018-07-05T13:24:17.781Z,29.70
2018-07-05T13:26:57.305Z,29.70
2018-07-05T13:29:37.658Z,29.60
2018-07-05T13:32:17.341Z,29.50
2018-07-05T13:34:57.129Z,29.50
2018-07-05T13:37:36.808Z,29.40
2018-07-05T13:40:16.388Z,29.40
2018-07-05T13:42:56.069Z,29.30
2018-07-05T13:48:09.561Z,29.30
2018-07-05T13:50:49.276Z,29.20
2018-07-05T13:53:28.918Z,29.20
2018-07-05T13:56:08.518Z,29.20
2018-07-05T13:58:48.173Z,29.10
2018-07-05T14:01:27.698Z,29.10
2018-07-05T14:04:07.492Z,29.10
2018-07-05T14:06:47.125Z,29.10
2018-07-05T14:09:26.803Z,29.10
2018-07-05T14:12:06.689Z,29.10
2018-07-05T14:14:46.345Z,29.20
2018-07-05T14:20:03.930Z,29.20
2018-07-05T14:22:43.511Z,29.10
2018-07-05T14:25:23.160Z,29.10
2018-07-05T14:30:36.515Z,29.00
2018-07-05T14:35:49.784Z,28.90
2018-07-05T14:38:29.260Z,28.80
2018-07-05T14:41:09.029Z,28.80
2018-07-05T14:46:22.098Z,28.70
2018-07-05T14:49:01.905Z,28.70
2018-07-05T14:51:41.682Z,28.60
2018-07-05T14:54:21.426Z,28.60
2018-07-05T14:57:01.160Z,28.50
2018-07-05T14:59:40.668Z,28.50
2018-07-05T15:02:20.342Z,28.40
2018-07-05T15:05:00.025Z,28.40
2018-07-05T15:07:39.584Z,28.30
2018-07-05T15:10:19.146Z,28.30
2018-07-05T15:12:58.855Z,28.20
2018-07-05T15:15:38.392Z,28.20
2018-07-05T15:18:18.257Z,28.10
2018-07-05T15:20:57.735Z,28.00
2018-07-05T15:23:37.305Z,28.00
2018-07-05T15:26:16.878Z,28.00
2018-07-05T15:28:56.499Z,27.90
2018-07-05T15:31:36.127Z,27.90
2018-07-05T15:34:16.008Z,27.80
2018-07-05T15:36:55.691Z,27.80
2018-07-05T15:39:35.450Z,27.80
2018-07-05T15:42:15.086Z,27.70
2018-07-05T15:44:54.656Z,27.70
2018-07-05T15:47:34.337Z,27.60
2018-07-05T15:50:13.793Z,27.60
2018-07-05T15:52:53.587Z,27.50
2018-07-05T15:55:33.219Z,27.50
2018-07-05T15:58:12.765Z,27.50
2018-07-05T16:00:52.439Z,27.40
2018-07-05T16:03:31.969Z,27.40
2018-07-05T16:06:11.621Z,27.40
2018-07-05T16:08:51.165Z,27.30
2018-07-05T16:11:30.858Z,27.20
2018-07-05T16:14:10.479Z,27.20
2018-07-05T16:16:50.154Z,27.20
2018-07-05T16:19:29.625Z,27.10
2018-07-05T16:22:10.025Z,27.10
2018-07-05T16:24:49.460Z,27.00
2018-07-05T16:27:29.148Z,27.00
2018-07-05T16:30:08.717Z,27.00
2018-07-05T16:37:55.681Z,26.90
2018-07-05T16:40:35.306Z,26.90
2018-07-05T16:43:15.097Z,26.80
2018-07-05T16:45:54.805Z,26.80
2018-07-05T16:48:34.360Z,26.80
2018-07-05T16:51:13.941Z,26.70
2018-07-05T16:53:53.472Z,26.70
2018-07-05T16:56:41.563Z,26.70
2018-07-05T16:59:21.140Z,26.70
2018-07-05T17:02:00.691Z,26.70
2018-07-05T17:04:40.385Z,26.60
2018-07-05T17:07:19.948Z,26.60
2018-07-05T17:09:59.653Z,26.60
2018-07-05T17:12:39.385Z,26.60
2018-07-05T17:15:19.022Z,26.60
2018-07-05T17:17:58.586Z,26.60
2018-07-05T17:20:38.241Z,26.60
2018-07-05T17:23:18.078Z,26.60
2018-07-05T17:25:57.772Z,26.50
2018-07-05T17:28:37.415Z,26.50
2018-07-05T17:31:17.025Z,26.60
2018-07-05T17:33:56.950Z,26.50
2018-07-05T17:39:10.483Z,26.50
2018-07-05T17:41:51.071Z,26.50
2018-07-05T17:44:30.715Z,26.50
2018-07-05T17:47:10.513Z,26.50
2018-07-05T17:49:50.020Z,26.50
2018-07-05T17:52:29.733Z,26.50
2018-07-05T17:55:09.419Z,26.50
2018-07-05T17:57:49.097Z,26.50
2018-07-05T18:00:28.652Z,26.50
2018-07-05T18:05:42.146Z,26.50
2018-07-05T18:08:21.770Z,26.40
2018-07-05T18:11:01.507Z,26.40
2018-07-05T18:13:41.177Z,26.40
2018-07-05T18:16:20.939Z,26.30
2018-07-05T18:19:00.678Z,26.30
2018-07-05T18:21:40.248Z,26.20
2018-07-05T18:24:19.871Z,26.20
2018-07-05T18:26:59.439Z,26.20
2018-07-05T18:29:39.049Z,26.10
2018-07-05T18:32:18.744Z,26.10
2018-07-05T18:34:58.599Z,26.10
2018-07-05T18:37:38.211Z,26.10
2018-07-05T18:42:51.835Z,26.00
2018-07-05T18:45:31.537Z,26.00
2018-07-05T18:48:11.107Z,26.00
2018-07-05T18:50:50.834Z,25.90
2018-07-05T18:53:30.462Z,25.90
2018-07-05T18:56:10.279Z,25.90
2018-07-05T19:01:23.536Z,25.70
2018-07-05T19:04:03.035Z,25.70
2018-07-05T19:06:42.798Z,25.70
2018-07-05T19:11:56.148Z,25.60
2018-07-05T19:14:35.748Z,25.50
2018-07-05T19:17:15.440Z,25.50
2018-07-05T19:19:55.012Z,25.40
2018-07-05T19:22:34.622Z,25.40
2018-07-05T19:25:14.354Z,25.30
2018-07-05T19:30:27.970Z,25.20
2018-07-05T19:33:07.649Z,25.20
2018-07-05T19:35:47.378Z,25.10
2018-07-05T19:38:27.071Z,25.10
2018-07-05T19:41:06.919Z,25.10
2018-07-05T19:43:46.663Z,25.10
2018-07-05T19:46:26.394Z,25.00
2018-07-05T19:49:06.626Z,25.00
2018-07-05T19:51:46.314Z,25.00
2018-07-05T19:54:26.440Z,25.00
2018-07-05T19:57:06.528Z,25.00
2018-07-05T19:59:46.144Z,25.00
2018-07-05T20:02:26.017Z,24.90
2018-07-05T20:05:05.693Z,24.90
2018-07-05T20:07:45.740Z,24.80
2018-07-05T20:10:25.485Z,24.80
2018-07-05T20:13:06.062Z,24.80
2018-07-05T20:15:45.740Z,24.70
2018-07-05T20:18:25.570Z,24.70
2018-07-05T20:21:05.363Z,24.60
2018-07-05T20:23:45.134Z,24.50
2018-07-05T20:28:59.023Z,24.40
2018-07-05T20:31:38.861Z,24.30
2018-07-05T20:36:52.612Z,24.20
2018-07-05T20:39:32.467Z,24.10
2018-07-05T20:42:12.086Z,24.10
2018-07-05T20:44:51.909Z,24.00
2018-07-05T20:47:31.629Z,24.00
2018-07-05T20:50:11.419Z,23.90
2018-07-05T20:52:51.244Z,23.90
2018-07-05T20:55:31.511Z,23.80
2018-07-05T20:58:12.134Z,23.80
2018-07-05T21:00:52.289Z,23.80
2018-07-05T21:03:32.077Z,23.70
2018-07-05T21:06:12.108Z,23.70
2018-07-05T21:08:52.221Z,23.70
2018-07-05T21:11:31.925Z,23.70
2018-07-05T21:14:11.821Z,23.60
2018-07-05T21:16:51.539Z,23.60
2018-07-05T21:19:31.461Z,23.60
2018-07-05T21:22:10.975Z,23.60
2018-07-05T21:24:50.680Z,23.60
2018-07-05T21:27:30.423Z,23.50
2018-07-05T21:30:10.078Z,23.50
2018-07-05T21:32:49.686Z,23.50
2018-07-05T21:35:29.255Z,23.50
2018-07-05T21:38:08.905Z,23.50
2018-07-05T21:40:48.571Z,23.40
2018-07-05T21:43:28.328Z,23.40
2018-07-05T21:46:08.118Z,23.40
2018-07-05T21:48:47.824Z,23.40
2018-07-05T21:51:27.536Z,23.40
2018-07-05T21:54:07.644Z,23.40
2018-07-05T21:59:21.276Z,23.30
2018-07-05T22:02:00.931Z,23.30
2018-07-05T22:04:40.718Z,19.80
2018-07-05T22:07:20.274Z,23.30
2018-07-05T22:10:00.149Z,23.30
2018-07-05T22:12:39.784Z,23.30
2018-07-05T22:15:19.460Z,23.30
2018-07-05T22:18:04.649Z,23.30
2018-07-05T22:20:49.722Z,23.30
2018-07-05T22:23:34.981Z,23.30
2018-07-05T22:26:20.745Z,23.30
2018-07-05T22:29:05.928Z,23.30
2018-07-05T22:31:49.757Z,23.20
2018-07-05T22:37:03.235Z,23.20
2018-07-05T22:39:42.772Z,23.20
2018-07-05T22:42:22.327Z,23.10
2018-07-05T22:45:02.201Z,23.10
2018-07-05T22:47:42.027Z,23.10
2018-07-05T22:50:21.536Z,23.10
2018-07-05T22:53:01.137Z,23.10
2018-07-05T22:55:40.673Z,23.10
2018-07-05T22:58:20.443Z,23.10
2018-07-05T23:03:33.719Z,23.00
2018-07-05T23:06:13.579Z,23.00
2018-07-05T23:08:53.263Z,23.00
2018-07-05T23:11:32.837Z,23.00
2018-07-05T23:14:12.593Z,22.90
2018-07-05T23:16:52.175Z,22.90
2018-07-05T23:19:31.739Z,22.90
2018-07-05T23:22:11.366Z,22.90
2018-07-05T23:24:50.952Z,22.80
2018-07-05T23:27:30.523Z,22.80
2018-07-05T23:30:10.285Z,22.80
2018-07-05T23:32:49.902Z,22.80
2018-07-05T23:35:29.372Z,22.80
2018-07-05T23:38:08.925Z,22.80
2018-07-05T23:43:22.151Z,22.80
2018-07-05T23:46:01.806Z,22.80
2018-07-05T23:51:14.949Z,22.70
2018-07-05T23:56:28.279Z,22.70
2018-07-05T23:59:07.787Z,22.70
